Time;durP1;ratioP1;P1;durP2;ratioP2;P2;SDS_P1;SDS_P2;PMS_P1;PMS_P2;Temp;Humidity;BMP_temperature;BMP_pressure;BME280_temperature;BME280_humidity;BME280_pressure;Samples;Min_cycle;Max_cycle;Signal;HPM_P1;HPM_P2
2022/12/26 00:01:50;;;;;;;13.07;7.15;;;13.00;96.70;;;;;;4919944;29;20048;-72
2022/12/26 00:04:18;;;;;;;12.02;7.60;;;13.00;96.70;;;;;;4911302;29;20052;-73
2022/12/26 00:07:08;;;;;;;13.77;8.45;;;13.00;96.70;;;;;;4901750;29;20050;-74
2022/12/26 00:09:36;;;;;;;14.68;8.73;;;13.00;96.70;;;;;;4878313;29;20067;-73
2022/12/26 00:12:05;;;;;;;21.55;9.57;;;13.00;96.70;;;;;;4895049;29;20063;-73
2022/12/26 00:14:33;;;;;;;35.92;10.90;;;13.00;96.70;;;;;;4898925;29;20043;-73
2022/12/26 00:17:01;;;;;;;28.60;10.65;;;13.00;96.70;;;;;;4915379;29;20639;-73
2022/12/26 00:19:29;;;;;;;26.98;10.48;;;13.10;96.70;;;;;;4894933;29;20562;-73
2022/12/26 00:21:57;;;;;;;28.77;9.65;;;13.10;96.70;;;;;;4907612;29;20519;-73
2022/12/26 00:24:27;;;;;;;28.90;9.90;;;13.10;96.70;;;;;;4894831;29;20507;-73
2022/12/26 00:26:55;;;;;;;38.20;10.70;;;13.10;96.70;;;;;;4922151;29;20123;-73
2022/12/26 00:29:23;;;;;;;26.80;10.07;;;13.10;96.70;;;;;;4905826;29;20039;-73
2022/12/26 00:31:51;;;;;;;35.60;10.82;;;13.00;96.70;;;;;;4891573;29;20052;-72
2022/12/26 00:34:20;;;;;;;28.90;11.23;;;13.00;96.70;;;;;;4906453;29;20050;-72
2022/12/26 00:36:48;;;;;;;24.85;10.52;;;13.00;96.70;;;;;;4893859;29;20459;-74
2022/12/26 00:39:16;;;;;;;23.52;10.65;;;13.00;96.70;;;;;;4899129;29;20062;-73
2022/12/26 00:41:49;;;;;;;22.83;9.43;;;13.00;96.70;;;;;;4910737;29;20044;-73
2022/12/26 00:44:17;;;;;;;20.80;8.75;;;12.90;96.70;;;;;;4897923;29;20059;-73
2022/12/26 00:46:45;;;;;;;13.75;8.43;;;12.90;96.70;;;;;;4909167;29;20442;-73
2022/12/26 00:49:14;;;;;;;20.10;8.82;;;12.80;96.70;;;;;;4893126;29;20231;-74
2022/12/26 00:51:42;;;;;;;12.50;8.50;;;12.80;96.70;;;;;;4906029;29;20167;-74
2022/12/26 00:54:10;;;;;;;12.00;8.40;;;12.80;96.70;;;;;;4896571;29;20048;-74
2022/12/26 00:56:38;;;;;;;9.30;8.40;;;12.80;96.70;;;;;;4915128;29;20070;-74
2022/12/26 00:59:07;;;;;;;8.90;8.05;;;12.80;96.70;;;;;;4911364;29;20130;-73
2022/12/26 01:01:36;;;;;;;8.15;7.45;;;12.80;96.70;;;;;;4899737;29;21139;-74
2022/12/26 01:04:04;;;;;;;8.85;7.85;;;12.80;96.70;;;;;;4914739;29;20131;-74
2022/12/26 01:06:32;;;;;;;9.05;8.05;;;12.80;96.70;;;;;;4890150;29;20062;-74
2022/12/26 01:09:01;;;;;;;11.10;9.00;;;12.80;96.70;;;;;;4899000;29;20048;-74
2022/12/26 01:11:41;;;;;;;14.18;10.20;;;12.80;96.70;;;;;;4919865;29;20479;-74
2022/12/26 01:14:14;;;;;;;16.15;10.18;;;12.70;96.70;;;;;;4912526;29;20044;-74
2022/12/26 01:16:44;;;;;;;16.08;10.25;;;12.70;96.70;;;;;;4907293;29;20662;-74
2022/12/26 01:19:12;;;;;;;22.58;10.55;;;12.70;96.70;;;;;;4896008;29;20387;-74
2022/12/26 01:21:41;;;;;;;16.33;9.55;;;12.60;96.70;;;;;;4917400;29;20101;-74
2022/12/26 01:24:10;;;;;;;14.25;8.63;;;12.60;96.70;;;;;;4903069;29;20059;-74
2022/12/26 01:26:38;;;;;;;14.70;8.40;;;12.60;96.70;;;;;;4901756;29;20075;-74
2022/12/26 01:29:07;;;;;;;13.55;6.60;;;12.60;96.70;;;;;;4916753;29;20058;-74
2022/12/26 01:31:37;;;;;;;16.88;6.57;;;12.50;96.70;;;;;;4889172;29;20042;-74
2022/12/26 01:34:13;;;;;;;24.80;5.57;;;12.50;96.70;;;;;;4909304;29;20067;-73
2022/12/26 01:36:41;;;;;;;11.90;5.75;;;12.40;96.70;;;;;;4893694;29;20456;-73
2022/12/26 01:39:10;;;;;;;15.95;5.45;;;12.50;96.70;;;;;;4908376;29;20151;-73
2022/12/26 01:41:38;;;;;;;8.60;4.93;;;12.50;96.70;;;;;;4910227;29;20450;-74
2022/12/26 07:42:11;;;;;;;6.13;4.13;;;12.00;96.70;;;;;;4894362;29;20071;-74
2022/12/26 07:44:39;;;;;;;4.30;3.90;;;12.10;96.70;;;;;;4887622;29;20099;-73
2022/12/26 07:47:07;;;;;;;5.65;4.30;;;12.10;96.70;;;;;;4886336;29;20058;-74
2022/12/26 07:49:36;;;;;;;6.00;4.80;;;12.20;96.70;;;;;;4924499;29;20566;-75
2022/12/26 07:52:05;;;;;;;4.85;3.72;;;12.20;96.70;;;;;;4899014;29;20067;-73
2022/12/26 07:54:33;;;;;;;6.13;4.03;;;12.30;96.70;;;;;;4901198;29;20044;-74
2022/12/26 07:57:02;;;;;;;6.25;4.45;;;12.30;96.70;;;;;;4905225;29;20126;-74
2022/12/26 07:59:51;;;;;;;4.80;3.83;;;12.30;96.70;;;;;;4917530;29;20044;-73
2022/12/26 08:02:21;;;;;;;4.47;3.30;;;12.40;96.70;;;;;;4922986;29;20541;-73
2022/12/26 08:04:51;;;;;;;3.80;3.40;;;12.40;96.70;;;;;;4910578;29;20059;-74
2022/12/26 08:07:19;;;;;;;4.68;3.17;;;12.40;96.70;;;;;;4916507;29;20530;-74
2022/12/26 08:09:47;;;;;;;6.55;4.30;;;12.50;96.70;;;;;;4897861;29;20043;-73
2022/12/26 08:12:15;;;;;;;4.93;3.50;;;12.50;96.70;;;;;;4925229;29;20046;-74
2022/12/26 08:14:44;;;;;;;6.28;3.80;;;12.50;96.70;;;;;;4900138;29;20047;-74
2022/12/26 08:17:15;;;;;;;6.35;3.88;;;12.50;96.70;;;;;;4913519;29;20406;-74
2022/12/26 08:19:44;;;;;;;5.90;5.18;;;12.60;96.70;;;;;;4892371;29;20079;-74
2022/12/26 08:22:12;;;;;;;5.53;4.70;;;12.60;96.70;;;;;;4905655;29;20775;-73
2022/12/26 08:24:40;;;;;;;6.93;4.68;;;12.60;96.70;;;;;;4892419;29;20139;-75
2022/12/26 08:27:09;;;;;;;5.35;4.50;;;12.70;96.70;;;;;;4888760;29;20048;-76
2022/12/26 08:29:38;;;;;;;5.13;4.45;;;12.70;96.70;;;;;;4903088;29;20050;-75
2022/12/26 08:32:07;;;;;;;5.80;4.70;;;12.70;96.70;;;;;;4890340;29;20564;-75
2022/12/26 08:34:37;;;;;;;5.78;4.75;;;12.70;96.70;;;;;;4894926;29;20098;-75
2022/12/26 08:37:05;;;;;;;5.00;3.92;;;12.70;96.70;;;;;;4902557;29;20051;-74
2022/12/26 08:39:33;;;;;;;5.57;3.85;;;12.70;96.70;;;;;;4916591;29;20055;-75
2022/12/26 08:42:01;;;;;;;4.75;4.25;;;12.80;96.70;;;;;;4923532;29;20044;-74
2022/12/26 08:44:29;;;;;;;5.75;4.85;;;12.80;96.70;;;;;;4898645;29;20067;-74
2022/12/26 08:46:59;;;;;;;10.30;7.32;;;12.80;96.70;;;;;;4894338;29;20062;-76
2022/12/26 08:49:28;;;;;;;7.97;6.65;;;12.90;96.70;;;;;;4911317;29;20043;-74
2022/12/26 08:51:57;;;;;;;8.02;6.13;;;13.00;96.70;;;;;;4899056;29;20040;-75
2022/12/26 08:54:25;;;;;;;7.32;5.63;;;13.00;96.70;;;;;;4911319;29;20122;-76
2022/12/26 08:56:53;;;;;;;6.97;5.90;;;13.10;96.70;;;;;;4902534;29;20086;-75
2022/12/26 08:59:22;;;;;;;5.47;4.97;;;13.10;96.70;;;;;;4899764;29;20051;-74
2022/12/26 09:01:50;;;;;;;5.70;4.60;;;13.20;96.70;;;;;;4920050;29;20056;-74
2022/12/26 09:04:19;;;;;;;5.28;4.78;;;13.20;96.70;;;;;;4898345;29;20055;-74
2022/12/26 09:06:47;;;;;;;13.02;9.43;;;13.30;96.70;;;;;;4909203;29;20159;-74
2022/12/26 09:09:17;;;;;;;15.93;11.18;;;13.40;96.70;;;;;;4910898;29;20043;-74
2022/12/26 09:11:45;;;;;;;8.77;7.65;;;13.50;96.70;;;;;;4911219;29;20052;-73
2022/12/26 09:14:13;;;;;;;8.27;6.28;;;13.50;96.70;;;;;;4912429;29;20123;-73
2022/12/26 09:16:45;;;;;;;7.65;5.95;;;13.50;96.70;;;;;;4905729;29;20138;-74
2022/12/26 09:19:18;;;;;;;6.88;4.82;;;13.50;96.70;;;;;;4918243;29;20059;-74
2022/12/26 09:21:47;;;;;;;5.57;4.13;;;13.50;96.70;;;;;;4893839;29;20621;-73
2022/12/26 09:24:17;;;;;;;5.38;4.50;;;13.50;96.70;;;;;;4896424;29;20081;-74
2022/12/26 09:26:45;;;;;;;6.70;4.43;;;13.50;96.70;;;;;;4907981;29;20052;-74
2022/12/26 09:29:13;;;;;;;5.95;4.30;;;13.60;96.70;;;;;;4922401;29;20044;-72
2022/12/26 09:31:42;;;;;;;4.60;4.20;;;13.60;96.70;;;;;;4923826;29;20288;-74
2022/12/26 09:34:12;;;;;;;4.30;3.95;;;13.60;96.70;;;;;;4924265;29;20406;-74
2022/12/26 09:36:41;;;;;;;6.18;5.10;;;13.70;96.70;;;;;;4898990;29;20427;-75
2022/12/26 09:39:47;;;;;;;5.63;4.45;;;13.70;96.70;;;;;;4910865;29;20079;-73
2022/12/26 09:42:27;;;;;;;6.20;4.70;;;13.60;96.70;;;;;;4907875;29;20582;-72
2022/12/26 09:45:04;;;;;;;6.70;5.45;;;13.70;96.70;;;;;;4884628;29;20536;-74
2022/12/26 09:47:34;;;;;;;5.95;4.88;;;13.80;96.70;;;;;;4886860;29;20142;-75
2022/12/26 09:50:09;;;;;;;5.75;4.30;;;13.70;96.70;;;;;;4898574;29;20039;-74
2022/12/26 09:52:42;;;;;;;9.13;6.50;;;13.80;96.70;;;;;;4913104;29;20150;-74
2022/12/26 09:55:33;;;;;;;8.35;6.53;;;13.80;96.70;;;;;;4894374;29;20719;-74
2022/12/26 09:58:07;;;;;;;7.00;6.30;;;13.80;96.70;;;;;;4898745;29;20052;-74
2022/12/26 10:00:44;;;;;;;9.82;6.45;;;13.80;96.70;;;;;;4901157;29;20102;-74
2022/12/26 10:03:13;;;;;;;7.00;6.30;;;13.90;96.70;;;;;;4903913;29;20229;-74
2022/12/26 10:05:50;;;;;;;9.35;7.40;;;13.90;96.70;;;;;;4922882;29;20047;-74
2022/12/26 10:08:26;;;;;;;8.75;7.85;;;13.90;96.70;;;;;;4916960;29;20046;-75
2022/12/26 10:11:01;;;;;;;15.25;11.23;;;13.90;96.70;;;;;;4903465;29;20067;-74
2022/12/26 10:13:34;;;;;;;11.20;6.90;;;13.90;96.70;;;;;;4900650;29;20550;-74
2022/12/26 10:16:07;;;;;;;8.40;6.70;;;13.90;96.70;;;;;;4897793;29;20060;-74
2022/12/26 10:18:52;;;;;;;7.25;6.50;;;13.90;96.70;;;;;;4908687;29;20039;-73
2022/12/26 10:21:39;;;;;;;6.65;5.95;;;13.90;96.70;;;;;;4895755;29;20056;-73
2022/12/26 10:24:10;;;;;;;;;;;14.00;96.70;;;;;;4916168;29;20704;-73
2022/12/26 10:26:42;;;;;;;6.97;5.78;;;14.10;96.70;;;;;;4916142;29;19923;-74
2022/12/26 10:29:17;;;;;;;7.55;6.78;;;14.10;96.70;;;;;;4900746;29;20139;-75
2022/12/26 10:31:49;;;;;;;8.35;7.00;;;14.10;96.70;;;;;;4895283;29;20048;-74
2022/12/26 10:34:22;;;;;;;10.32;6.95;;;14.10;96.70;;;;;;4894206;29;20044;-75
2022/12/26 10:36:53;;;;;;;9.40;6.35;;;14.20;96.70;;;;;;4913813;29;20054;-73
2022/12/26 10:39:25;;;;;;;9.00;6.65;;;14.30;96.70;;;;;;4901245;29;20131;-73
2022/12/26 10:41:58;;;;;;;11.35;6.95;;;14.40;96.70;;;;;;4900152;29;20058;-73
2022/12/26 10:44:26;;;;;;;7.60;6.53;;;14.50;96.70;;;;;;4905718;29;20058;-73
2022/12/26 10:47:22;;;;;;;9.35;7.60;;;14.50;96.70;;;;;;4908405;29;20040;-71
2022/12/26 10:49:50;;;;;;;12.18;8.15;;;14.50;96.70;;;;;;4899154;29;20056;-74
2022/12/26 10:52:22;;;;;;;10.40;7.50;;;14.60;96.70;;;;;;4910450;29;20044;-73
2022/12/26 10:54:54;;;;;;;8.45;6.97;;;14.50;96.70;;;;;;4896893;29;20047;-74
2022/12/26 10:57:50;;;;;;;8.25;6.47;;;14.50;96.70;;;;;;4915409;29;20048;-74
2022/12/26 11:00:20;;;;;;;6.40;5.72;;;14.50;96.70;;;;;;4883050;29;20052;-73
2022/12/26 11:03:02;;;;;;;6.53;5.80;;;14.50;96.70;;;;;;4901615;29;20059;-73
2022/12/26 11:05:31;;;;;;;9.20;6.22;;;14.50;96.70;;;;;;4916401;29;20048;-74
2022/12/26 11:08:24;;;;;;;9.73;7.20;;;14.60;96.70;;;;;;4887377;29;20052;-75
2022/12/26 11:11:03;;;;;;;12.27;9.10;;;14.60;96.70;;;;;;4921254;29;20111;-74
2022/12/26 11:13:37;;;;;;;13.90;11.73;;;14.60;96.70;;;;;;4904240;29;20043;-74
2022/12/26 11:16:24;;;;;;;15.25;13.10;;;14.70;96.70;;;;;;4917363;29;20046;-74
2022/12/26 11:18:53;;;;;;;21.08;18.02;;;14.80;96.70;;;;;;4912747;29;20058;-74
2022/12/26 11:21:24;;;;;;;8.75;7.43;;;14.70;96.70;;;;;;4896463;29;20051;-73
2022/12/26 11:24:15;;;;;;;9.75;7.10;;;14.70;96.70;;;;;;4915434;29;20728;-73
2022/12/26 11:26:43;;;;;;;10.70;7.82;;;14.80;96.70;;;;;;4893935;29;20048;-72
2022/12/26 11:29:15;;;;;;;11.32;8.07;;;15.20;96.70;;;;;;4896861;29;20071;-73
2022/12/26 11:31:51;;;;;;;13.15;8.82;;;15.20;96.70;;;;;;4891411;29;20075;-73
2022/12/26 11:34:27;;;;;;;12.63;8.65;;;15.20;96.70;;;;;;4894098;29;20110;-73
2022/12/26 11:36:56;;;;;;;14.30;11.10;;;15.30;96.70;;;;;;4926348;29;20142;-73
2022/12/26 11:39:26;;;;;;;9.27;7.95;;;15.40;96.70;;;;;;4893615;29;20514;-73
2022/12/26 11:41:55;;;;;;;14.05;7.63;;;15.40;96.70;;;;;;4903526;29;20503;-74
2022/12/26 11:44:28;;;;;;;11.68;7.40;;;15.40;96.70;;;;;;4925160;29;20074;-74
2022/12/26 11:47:08;;;;;;;11.57;7.53;;;15.40;96.70;;;;;;4919342;29;20051;-74
2022/12/26 11:49:53;;;;;;;8.90;8.00;;;15.40;96.70;;;;;;4906477;29;20048;-73
2022/12/26 11:52:46;;;;;;;10.90;7.90;;;15.50;96.70;;;;;;4867099;29;20064;-73
2022/12/26 11:55:27;;;;;;;13.27;8.65;;;15.60;96.70;;;;;;4842147;29;20057;-73
2022/12/26 11:58:18;;;;;;;10.93;8.15;;;15.50;96.70;;;;;;4874399;29;20045;-72
2022/12/26 12:01:10;;;;;;;10.93;8.07;;;15.50;96.70;;;;;;4867184;29;20544;-73
2022/12/26 12:03:41;;;;;;;10.45;7.53;;;15.50;96.70;;;;;;4858326;29;20062;-74
2022/12/26 12:06:36;;;;;;;9.60;6.82;;;15.50;96.70;;;;;;4856986;29;20052;-73
2022/12/26 12:09:16;;;;;;;7.78;6.90;;;15.50;96.70;;;;;;4880217;29;20296;-74
2022/12/26 12:11:50;;;;;;;9.82;7.28;;;15.50;96.70;;;;;;4875948;29;20053;-73
2022/12/26 12:14:34;;;;;;;9.18;7.60;;;15.50;96.70;;;;;;4869450;29;20060;-73
2022/12/26 12:17:13;;;;;;;8.32;7.40;;;15.60;96.70;;;;;;4874383;29;20585;-73
2022/12/26 12:19:49;;;;;;;9.25;7.82;;;15.60;96.70;;;;;;4892658;29;20558;-73
2022/12/26 12:22:43;;;;;;;8.93;7.93;;;15.70;96.70;;;;;;4900232;29;20058;-73
2022/12/26 12:25:37;;;;;;;10.57;8.00;;;15.70;96.70;;;;;;4900515;29;20059;-74
2022/12/26 12:28:20;;;;;;;11.00;9.15;;;15.80;96.70;;;;;;4917120;29;20044;-74
2022/12/26 12:30:56;;;;;;;13.52;10.13;;;15.80;96.70;;;;;;4926041;29;20043;-73
2022/12/26 12:33:38;;;;;;;10.77;9.68;;;15.90;96.70;;;;;;4899208;29;20131;-73
2022/12/26 12:36:10;;;;;;;14.05;10.60;;;15.90;96.70;;;;;;4894299;29;20521;-73
2022/12/26 12:38:54;;;;;;;11.15;9.20;;;15.90;96.70;;;;;;4917566;29;20051;-73
2022/12/26 12:41:53;;;;;;;11.73;9.90;;;16.00;96.70;;;;;;4889585;29;20400;-73
2022/12/26 12:44:29;;;;;;;11.85;9.63;;;16.10;96.70;;;;;;4873795;29;20059;-73
2022/12/26 12:47:06;;;;;;;10.53;9.30;;;16.30;96.70;;;;;;4902764;29;20052;-73
2022/12/26 12:49:56;;;;;;;11.70;8.93;;;16.30;96.70;;;;;;4882424;29;20056;-73
2022/12/26 12:52:40;;;;;;;10.70;8.40;;;16.50;96.70;;;;;;4902902;29;20079;-73
2022/12/26 12:55:32;;;;;;;10.77;9.02;;;16.80;96.70;;;;;;4886130;29;20136;-73
2022/12/26 12:58:07;;;;;;;38.15;25.85;;;17.00;96.70;;;;;;4902102;29;20747;-73
2022/12/26 13:00:41;;;;;;;14.65;11.05;;;17.10;96.70;;;;;;4906094;29;20054;-74
2022/12/26 13:03:20;;;;;;;15.43;12.25;;;17.20;96.70;;;;;;4895968;29;20672;-73
2022/12/26 13:05:58;;;;;;;26.48;19.88;;;17.40;96.70;;;;;;4887659;29;20085;-73
2022/12/26 13:08:31;;;;;;;23.83;18.73;;;17.30;96.70;;;;;;4887104;29;20804;-73
2022/12/26 13:11:04;;;;;;;17.70;15.80;;;17.40;96.70;;;;;;4895985;29;20388;-74
2022/12/26 13:13:36;;;;;;;18.58;14.65;;;17.40;96.70;;;;;;4897067;29;20833;-73
2022/12/26 13:16:10;;;;;;;15.18;13.25;;;17.40;96.70;;;;;;4901170;29;20040;-73
2022/12/26 13:18:44;;;;;;;18.02;13.68;;;17.40;96.70;;;;;;4895213;29;20048;-73
2022/12/26 13:21:15;;;;;;;29.58;24.35;;;17.60;96.70;;;;;;4886198;29;20056;-74
2022/12/26 13:26:38;;;;;;;16.65;11.05;;;17.50;96.70;;;;;;4904776;29;20451;-73
2022/12/26 13:29:16;;;;;;;12.70;9.25;;;17.50;96.70;;;;;;4886037;29;20100;-73
2022/12/26 13:31:45;;;;;;;17.00;12.02;;;17.40;96.70;;;;;;4893104;29;20048;-73
2022/12/26 13:34:17;;;;;;;13.63;8.65;;;17.40;96.70;;;;;;4898343;29;20084;-73
2022/12/26 13:36:48;;;;;;;10.80;6.38;;;17.30;96.70;;;;;;4887684;29;20165;-73
2022/12/26 13:39:33;;;;;;;8.40;5.50;;;17.30;96.70;;;;;;4887939;29;20681;-73
2022/12/26 13:45:46;;;;;;;45.70;35.30;;;17.20;96.70;;;;;;4898692;29;20100;-73
2022/12/26 13:48:53;;;;;;;75.07;60.73;;;17.10;96.70;;;;;;4904836;29;20060;-73
2022/12/26 13:51:44;;;;;;;36.17;30.30;;;17.20;96.70;;;;;;4904797;29;20430;-73
2022/12/26 13:54:16;;;;;;;18.42;14.05;;;17.10;96.70;;;;;;4905809;29;20044;-73
2022/12/26 13:57:11;;;;;;;17.65;12.23;;;17.00;96.70;;;;;;4904239;29;20422;-73
2022/12/26 13:59:49;;;;;;;22.30;15.25;;;17.00;96.70;;;;;;4873524;29;20139;-75
2022/12/26 14:02:40;;;;;;;77.45;59.78;;;17.00;96.70;;;;;;4900339;29;20041;-73
2022/12/26 14:05:36;;;;;;;39.25;31.10;;;17.00;96.70;;;;;;4884112;29;20488;-73
2022/12/26 14:08:13;;;;;;;34.63;25.98;;;17.00;96.70;;;;;;4886403;29;20084;-73
2022/12/26 14:10:54;;;;;;;35.38;24.23;;;16.90;96.70;;;;;;4895250;29;20040;-74
2022/12/26 14:13:52;;;;;;;20.98;13.57;;;16.90;96.70;;;;;;4894161;29;20175;-74
2022/12/26 14:16:28;;;;;;;17.17;9.90;;;16.80;96.70;;;;;;4887471;29;20154;-73
2022/12/26 14:19:05;;;;;;;23.38;17.13;;;16.70;96.70;;;;;;4897030;29;20127;-74
2022/12/26 14:21:45;;;;;;;14.77;8.60;;;16.70;96.70;;;;;;4903817;29;20052;-73
2022/12/26 14:24:30;;;;;;;15.90;10.18;;;16.70;96.70;;;;;;4886965;29;20139;-73
2022/12/26 14:27:21;;;;;;;19.80;11.30;;;16.60;96.70;;;;;;4891659;29;20063;-73
2022/12/26 14:29:58;;;;;;;16.55;10.27;;;16.60;96.70;;;;;;4904174;29;20063;-73
2022/12/26 14:32:36;;;;;;;10.57;6.30;;;16.60;96.70;;;;;;4898898;29;20048;-73
2022/12/26 14:35:13;;;;;;;8.07;5.20;;;16.50;96.70;;;;;;4889354;29;20057;-74
2022/12/26 14:37:50;;;;;;;7.63;4.82;;;16.40;96.70;;;;;;4877290;29;20107;-73
2022/12/26 14:40:28;;;;;;;7.38;4.80;;;16.30;96.70;;;;;;4896051;29;20147;-73
2022/12/26 14:43:30;;;;;;;11.85;6.35;;;16.30;96.70;;;;;;4892647;29;20117;-73
2022/12/26 14:46:00;;;;;;;16.85;11.63;;;16.30;96.70;;;;;;4882071;29;20060;-73
2022/12/26 14:48:53;;;;;;;23.15;16.08;;;16.20;96.70;;;;;;4876202;29;20048;-73
2022/12/26 14:51:39;;;;;;;19.88;13.27;;;16.20;96.70;;;;;;4891272;29;20056;-73
2022/12/26 14:54:35;;;;;;;14.55;9.40;;;16.20;96.70;;;;;;4892083;29;20049;-73
2022/12/26 14:57:52;;;;;;;15.82;9.68;;;16.10;96.70;;;;;;4897858;29;20040;-73
2022/12/26 15:00:34;;;;;;;12.48;8.30;;;16.10;96.70;;;;;;4882419;29;20056;-73
2022/12/26 15:03:47;;;;;;;15.38;7.38;;;16.10;96.70;;;;;;4893612;29;20048;-73
2022/12/26 15:06:43;;;;;;;12.18;6.78;;;16.00;96.70;;;;;;4881970;29;20068;-73
2022/12/26 15:09:39;;;;;;;11.52;6.80;;;15.90;96.70;;;;;;4900702;29;20058;-74
2022/12/26 15:12:49;;;;;;;11.07;8.73;;;15.90;96.70;;;;;;4895836;29;20255;-73
2022/12/26 15:15:42;;;;;;;11.30;7.18;;;15.80;96.70;;;;;;4888397;29;20131;-73
2022/12/26 15:18:43;;;;;;;11.40;8.18;;;15.80;96.70;;;;;;4890264;29;20055;-73
2022/12/26 15:21:39;;;;;;;10.02;6.35;;;15.70;96.70;;;;;;4904997;29;20056;-73
2022/12/26 15:24:57;;;;;;;11.88;8.00;;;15.70;96.70;;;;;;4889163;29;20052;-74
2022/12/26 15:28:25;;;;;;;27.70;17.00;;;15.60;96.70;;;;;;4902236;29;20143;-73
2022/12/26 15:31:31;;;;;;;28.02;18.45;;;15.60;96.70;;;;;;4895842;29;20722;-73
2022/12/26 15:34:08;;;;;;;14.20;10.07;;;15.50;96.70;;;;;;4879369;29;20064;-74
2022/12/26 15:36:52;;;;;;;11.90;7.38;;;15.50;96.70;;;;;;4892589;29;20051;-73
2022/12/26 15:39:27;;;;;;;9.93;5.55;;;15.50;96.70;;;;;;4896513;29;20056;-73
2022/12/26 15:42:11;;;;;;;8.07;3.80;;;15.50;96.70;;;;;;4888725;29;20076;-73
2022/12/26 15:44:46;;;;;;;5.97;3.65;;;15.50;96.70;;;;;;4890861;29;20406;-73
2022/12/26 15:47:21;;;;;;;9.68;3.22;;;15.50;96.70;;;;;;4903614;29;20056;-73
2022/12/26 15:50:07;;;;;;;5.80;3.70;;;15.50;96.70;;;;;;4898338;29;20052;-73
2022/12/26 15:52:57;;;;;;;9.23;3.37;;;15.40;96.70;;;;;;4906243;29;20667;-73
2022/12/26 15:55:54;;;;;;;15.52;9.63;;;15.40;96.70;;;;;;4904850;29;20159;-73
2022/12/26 15:58:40;;;;;;;22.17;13.90;;;15.40;96.70;;;;;;4898811;29;20526;-74
2022/12/26 16:01:10;;;;;;;30.92;18.83;;;15.40;96.70;;;;;;4898177;29;20107;-73
2022/12/26 16:03:44;;;;;;;37.38;21.73;;;15.30;96.70;;;;;;4895392;29;20496;-73
2022/12/26 16:06:29;;;;;;;36.63;20.77;;;15.30;96.70;;;;;;4889457;29;20797;-73
2022/12/26 16:09:19;;;;;;;28.80;15.75;;;15.30;96.70;;;;;;4887555;29;20048;-73
2022/12/26 16:11:55;;;;;;;24.05;12.43;;;15.30;96.70;;;;;;4892941;29;20706;-73
2022/12/26 16:14:27;;;;;;;26.50;13.60;;;15.30;96.70;;;;;;4890851;29;20068;-73
2022/12/26 16:17:15;;;;;;;24.20;13.38;;;15.30;96.70;;;;;;4890173;29;20052;-73
2022/12/26 16:19:46;;;;;;;13.65;8.95;;;15.30;96.70;;;;;;4899510;29;20056;-74
2022/12/26 16:25:07;;;;;;;11.10;5.95;;;15.30;96.70;;;;;;4890174;29;20059;-73
2022/12/26 16:27:36;;;;;;;9.35;6.28;;;15.20;96.70;;;;;;4887210;29;20147;-73
2022/12/26 16:30:10;;;;;;;15.10;8.63;;;15.20;96.70;;;;;;4900478;29;20056;-73
2022/12/26 16:32:41;;;;;;;21.73;12.45;;;15.20;96.70;;;;;;4898743;29;20487;-73
2022/12/26 16:35:18;;;;;;;32.30;17.38;;;15.10;96.70;;;;;;4903846;29;20737;-73
2022/12/26 16:38:13;;;;;;;19.65;9.65;;;15.10;96.70;;;;;;4900092;29;20056;-73
2022/12/26 16:40:43;;;;;;;9.13;4.65;;;15.00;96.70;;;;;;4906753;29;20140;-73
2022/12/26 16:43:24;;;;;;;6.22;3.88;;;15.00;96.70;;;;;;4906224;29;20645;-73
2022/12/26 16:45:57;;;;;;;10.63;3.70;;;14.90;96.70;;;;;;4913834;29;20055;-73
2022/12/26 16:48:29;;;;;;;6.70;3.88;;;14.80;96.70;;;;;;4912971;29;20402;-73
2022/12/26 16:51:00;;;;;;;10.43;4.10;;;14.80;96.70;;;;;;4896411;29;20086;-73
2022/12/26 16:53:43;;;;;;;6.25;3.35;;;14.70;96.70;;;;;;4908848;29;20067;-73
2022/12/26 16:56:23;;;;;;;10.40;3.95;;;14.70;96.70;;;;;;4887921;29;20052;-73
2022/12/26 16:58:57;;;;;;;8.45;3.78;;;14.60;96.70;;;;;;4907093;29;20434;-74
2022/12/26 17:01:32;;;;;;;7.25;3.58;;;14.60;96.70;;;;;;4901871;29;20040;-73
2022/12/26 17:04:04;;;;;;;7.68;3.97;;;14.60;96.70;;;;;;4907478;29;20048;-74
2022/12/26 17:06:37;;;;;;;7.72;4.28;;;14.60;96.70;;;;;;4907995;29;20055;-74
2022/12/26 17:09:09;;;;;;;7.25;4.05;;;14.50;96.70;;;;;;4898740;29;20036;-73
2022/12/26 17:11:45;;;;;;;12.35;6.28;;;14.50;96.70;;;;;;4908814;29;20481;-74
2022/12/26 17:14:20;;;;;;;15.70;7.30;;;14.60;96.70;;;;;;4916261;29;20058;-73
2022/12/26 17:16:56;;;;;;;39.67;19.33;;;14.60;96.70;;;;;;4910215;29;20048;-74
2022/12/26 17:19:27;;;;;;;40.38;19.88;;;14.60;96.70;;;;;;4920055;29;20077;-74
2022/12/26 17:22:26;;;;;;;26.45;13.88;;;14.60;96.70;;;;;;4916179;29;20620;-73
2022/12/26 17:25:25;;;;;;;22.33;10.27;;;14.60;96.70;;;;;;4883061;29;20052;-73
2022/12/26 17:28:21;;;;;;;18.23;8.93;;;14.60;96.70;;;;;;4896141;29;20732;-73
2022/12/26 17:30:52;;;;;;;18.08;8.93;;;14.60;96.70;;;;;;4898463;29;20055;-73
2022/12/26 17:33:23;;;;;;;25.10;13.35;;;14.60;96.70;;;;;;4902867;29;20040;-73
2022/12/26 17:35:53;;;;;;;27.05;16.75;;;14.50;96.70;;;;;;4892392;29;20052;-73
2022/12/26 17:38:44;;;;;;;28.10;16.65;;;14.50;96.70;;;;;;4918922;29;20409;-73
2022/12/26 17:41:15;;;;;;;25.13;16.58;;;14.50;96.70;;;;;;4912466;29;20048;-74
2022/12/26 17:43:45;;;;;;;28.27;17.58;;;14.40;96.70;;;;;;4894995;29;20155;-74
2022/12/26 17:46:15;;;;;;;24.83;16.30;;;14.40;96.70;;;;;;4899030;29;20068;-74
2022/12/26 17:48:43;;;;;;;26.08;16.27;;;14.40;96.70;;;;;;4898542;29;20102;-74
2022/12/26 17:51:16;;;;;;;28.73;16.23;;;14.40;96.70;;;;;;4897524;29;20866;-74
2022/12/26 17:53:49;;;;;;;23.38;15.88;;;14.30;96.70;;;;;;4914771;29;20071;-74
2022/12/26 17:56:21;;;;;;;27.02;16.65;;;14.40;96.70;;;;;;4881046;29;20351;-73
2022/12/26 17:58:50;;;;;;;24.73;17.30;;;14.40;96.70;;;;;;4911126;29;20094;-74
2022/12/26 18:01:19;;;;;;;24.38;16.65;;;14.40;96.70;;;;;;4915831;29;20100;-73
2022/12/26 18:03:51;;;;;;;27.00;17.50;;;14.30;96.70;;;;;;4898643;29;20048;-72
2022/12/26 18:06:22;;;;;;;27.33;17.58;;;14.30;96.70;;;;;;4890002;29;20096;-73
2022/12/26 18:08:51;;;;;;;28.55;20.85;;;14.30;96.70;;;;;;4895928;29;20075;-72
2022/12/26 18:11:19;;;;;;;30.73;19.65;;;14.30;96.70;;;;;;4907858;29;20075;-73
2022/12/26 18:13:47;;;;;;;26.27;17.83;;;14.30;96.70;;;;;;4921350;29;20047;-72
2022/12/26 18:16:18;;;;;;;27.35;18.60;;;14.30;96.70;;;;;;4884196;29;20156;-72
2022/12/26 18:18:47;;;;;;;30.90;20.83;;;14.30;96.70;;;;;;4907520;29;20068;-73
2022/12/26 18:21:15;;;;;;;27.77;20.00;;;14.30;96.70;;;;;;4893765;29;20406;-74
2022/12/26 18:23:44;;;;;;;33.75;21.40;;;14.30;96.70;;;;;;4902968;29;20521;-73
2022/12/26 18:26:19;;;;;;;28.80;20.35;;;14.30;96.70;;;;;;4896521;29;20044;-73
2022/12/26 18:28:48;;;;;;;25.33;19.38;;;14.30;96.70;;;;;;4893303;29;20660;-74
2022/12/26 18:31:17;;;;;;;24.92;18.65;;;14.30;96.70;;;;;;4915436;29;20044;-75
2022/12/26 18:33:45;;;;;;;24.75;18.08;;;14.30;96.70;;;;;;4903424;29;20079;-75
2022/12/26 18:36:15;;;;;;;24.33;18.15;;;14.20;96.70;;;;;;4895905;29;20106;-75
2022/12/26 18:38:43;;;;;;;24.23;18.20;;;14.20;96.70;;;;;;4917274;29;20298;-74
2022/12/26 18:41:15;;;;;;;21.33;16.73;;;14.20;96.70;;;;;;4898436;29;20043;-73
2022/12/26 18:43:44;;;;;;;19.38;16.00;;;14.10;96.70;;;;;;4913237;29;20064;-74
2022/12/26 18:46:16;;;;;;;21.20;16.67;;;14.10;96.70;;;;;;4898410;29;20048;-74
2022/12/26 18:48:44;;;;;;;18.95;15.95;;;14.10;96.70;;;;;;4899070;29;20086;-75
2022/12/26 18:51:13;;;;;;;23.10;17.23;;;14.00;96.70;;;;;;4899502;29;20044;-76
2022/12/26 18:53:41;;;;;;;20.48;15.50;;;14.00;96.70;;;;;;4896877;29;20051;-76
2022/12/26 18:56:15;;;;;;;19.17;15.52;;;13.90;96.70;;;;;;4898244;29;20497;-75
2022/12/26 18:58:43;;;;;;;25.63;19.52;;;14.00;96.70;;;;;;4913023;29;20107;-75
2022/12/26 19:01:13;;;;;;;27.80;19.48;;;14.00;96.70;;;;;;4899500;29;20044;-74
2022/12/26 19:03:42;;;;;;;25.27;19.48;;;14.00;96.70;;;;;;4900228;29;20055;-73
2022/12/26 19:06:13;;;;;;;26.65;20.08;;;14.00;96.70;;;;;;4898558;29;20043;-75
2022/12/26 19:08:42;;;;;;;28.65;21.50;;;14.00;96.70;;;;;;4918118;29;20056;-75
2022/12/26 19:11:12;;;;;;;24.38;19.73;;;14.00;96.70;;;;;;4885047;29;20048;-75
2022/12/26 19:13:42;;;;;;;33.13;22.13;;;14.00;96.70;;;;;;4917122;29;20047;-75
2022/12/26 19:16:30;;;;;;;25.65;20.20;;;14.00;96.70;;;;;;4911814;29;20051;-74
2022/12/26 19:19:00;;;;;;;23.75;19.13;;;14.00;96.70;;;;;;4832164;29;20181;-74
2022/12/26 19:21:30;;;;;;;24.38;19.52;;;13.90;96.70;;;;;;4846678;29;20072;-73
2022/12/26 19:24:00;;;;;;;23.00;17.63;;;13.90;96.70;;;;;;4817997;29;20073;-75
2022/12/26 19:26:28;;;;;;;19.98;15.82;;;13.90;96.70;;;;;;4834575;29;20551;-74
2022/12/26 19:28:58;;;;;;;22.85;17.40;;;13.80;96.70;;;;;;4828211;29;20053;-75